createdAt,value
2023-10-07T00:00:32.993Z,19.23
2023-10-07T00:03:01.719Z,19.21
2023-10-07T00:05:33.725Z,19.21
2023-10-07T00:08:05.108Z,19.21
2023-10-07T00:10:38.469Z,19.20
2023-10-07T00:13:10.691Z,19.19
2023-10-07T00:15:40.753Z,19.20
2023-10-07T00:18:12.884Z,19.17
2023-10-07T00:20:43.245Z,19.15
2023-10-07T00:23:13.181Z,19.15
2023-10-07T00:25:41.883Z,19.13
2023-10-07T00:28:19.779Z,19.13
2023-10-07T00:30:50.617Z,19.14
2023-10-07T00:33:23.221Z,19.12
2023-10-07T00:35:54.664Z,19.12
2023-10-07T00:38:25.681Z,19.12
2023-10-07T00:40:58.518Z,19.10
2023-10-07T00:43:29.224Z,19.08
2023-10-07T00:46:07.581Z,19.08
2023-10-07T00:48:49.600Z,19.06
2023-10-07T00:51:25.414Z,19.07
2023-10-07T00:54:02.160Z,19.04
2023-10-07T00:56:35.497Z,19.06
2023-10-07T00:59:09.017Z,19.03
2023-10-07T01:01:38.776Z,19.03
2023-10-07T01:04:08.106Z,19.01
2023-10-07T01:06:40.350Z,18.99
2023-10-07T01:09:16.050Z,18.95
2023-10-07T01:11:47.786Z,18.96
2023-10-07T01:14:15.911Z,18.95
2023-10-07T01:16:45.461Z,18.94
2023-10-07T01:19:31.516Z,18.93
2023-10-07T01:22:10.296Z,18.91
2023-10-07T01:24:46.980Z,18.91
2023-10-07T01:27:22.633Z,18.92
2023-10-07T01:29:52.064Z,18.92
2023-10-07T01:32:21.118Z,18.87
2023-10-07T01:34:54.552Z,18.90
2023-10-07T01:37:23.704Z,18.89
2023-10-07T01:39:55.019Z,18.89
2023-10-07T01:42:27.630Z,18.86
2023-10-07T01:45:12.419Z,18.85
2023-10-07T01:47:41.329Z,18.84
2023-10-07T01:50:13.433Z,18.81
2023-10-07T01:52:46.395Z,18.82
2023-10-07T01:55:16.747Z,18.80
2023-10-07T01:57:46.202Z,18.80
2023-10-07T02:00:15.005Z,18.79
2023-10-07T02:02:50.766Z,18.79
2023-10-07T02:05:26.682Z,18.79
2023-10-07T02:07:56.153Z,18.80
2023-10-07T02:10:27.550Z,18.79
2023-10-07T02:12:56.071Z,18.80
2023-10-07T02:15:24.086Z,18.82
2023-10-07T02:17:58.233Z,18.82
2023-10-07T02:20:27.033Z,18.83
2023-10-07T02:22:54.964Z,18.85
2023-10-07T02:25:28.784Z,18.88
2023-10-07T02:27:57.996Z,18.88
2023-10-07T02:30:26.893Z,18.88
2023-10-07T02:32:55.695Z,18.88
2023-10-07T02:35:32.009Z,18.89
2023-10-07T02:38:05.061Z,18.89
2023-10-07T02:40:49.943Z,18.91
2023-10-07T02:43:19.652Z,18.93
2023-10-07T02:45:47.786Z,18.94
2023-10-07T02:48:15.685Z,18.94
2023-10-07T02:50:44.561Z,18.94
2023-10-07T02:53:15.860Z,18.94
2023-10-07T02:55:56.121Z,18.93
2023-10-07T02:58:34.110Z,18.95
2023-10-07T03:01:12.668Z,18.94
2023-10-07T03:03:42.271Z,18.93
2023-10-07T03:06:10.565Z,18.92
2023-10-07T03:08:50.640Z,18.91
2023-10-07T03:11:23.724Z,18.91
2023-10-07T03:14:07.619Z,18.93
2023-10-07T03:16:45.629Z,18.92
2023-10-07T03:19:22.038Z,18.89
2023-10-07T03:22:11.110Z,18.90
2023-10-07T03:24:47.369Z,18.90
2023-10-07T03:27:23.933Z,18.88
2023-10-07T03:30:13.497Z,18.91
2023-10-07T03:32:57.320Z,18.91
2023-10-07T03:35:59.644Z,18.91
2023-10-07T03:38:27.885Z,18.92
2023-10-07T03:40:56.353Z,18.92
2023-10-07T03:43:27.458Z,18.91
2023-10-07T03:45:58.284Z,18.94
2023-10-07T03:48:32.570Z,18.95
2023-10-07T03:51:06.019Z,18.95
2023-10-07T03:53:34.905Z,18.95
2023-10-07T03:56:07.717Z,18.96
2023-10-07T03:58:39.591Z,18.97
2023-10-07T04:01:18.091Z,18.99
2023-10-07T04:03:48.569Z,18.99
2023-10-07T04:06:17.669Z,19.00
2023-10-07T04:08:46.918Z,19.00
2023-10-07T04:11:17.421Z,19.01
2023-10-07T04:13:54.921Z,19.01
2023-10-07T04:16:30.598Z,19.03
2023-10-07T04:19:08.514Z,19.02
2023-10-07T04:21:40.723Z,19.02
2023-10-07T04:24:11.522Z,19.03
2023-10-07T04:26:41.501Z,19.03
2023-10-07T04:29:16.687Z,19.05
2023-10-07T04:31:52.724Z,19.04
2023-10-07T04:34:22.432Z,19.01
2023-10-07T04:37:04.502Z,19.06
2023-10-07T04:39:40.399Z,19.06
2023-10-07T04:42:08.541Z,19.06
2023-10-07T04:44:53.930Z,19.03
2023-10-07T04:47:36.413Z,19.02
2023-10-07T04:50:16.159Z,19.01
2023-10-07T04:52:51.692Z,18.98
2023-10-07T04:55:21.430Z,19.02
2023-10-07T04:57:58.660Z,19.02
2023-10-07T05:00:29.727Z,19.02
2023-10-07T05:03:00.675Z,19.03
2023-10-07T05:05:30.943Z,19.02
2023-10-07T05:08:00.256Z,19.03
2023-10-07T05:10:31.296Z,19.06
2023-10-07T05:13:02.530Z,19.05
2023-10-07T05:15:29.417Z,19.04
2023-10-07T05:18:02.912Z,19.01
2023-10-07T05:20:30.432Z,19.01
2023-10-07T05:23:01.793Z,19.00
2023-10-07T05:25:30.251Z,19.01
2023-10-07T05:27:58.673Z,19.00
2023-10-07T05:30:28.255Z,19.02
2023-10-07T05:32:56.507Z,19.04
2023-10-07T05:35:28.512Z,19.05
2023-10-07T05:38:04.440Z,19.04
2023-10-07T05:40:34.828Z,19.03
2023-10-07T05:43:02.697Z,19.03
2023-10-07T05:45:31.333Z,19.01
2023-10-07T05:47:59.294Z,19.00
2023-10-07T05:50:29.987Z,19.00
2023-10-07T05:52:58.819Z,18.98
2023-10-07T05:55:26.635Z,18.98
2023-10-07T05:57:55.049Z,18.99
2023-10-07T06:00:26.034Z,19.00
2023-10-07T06:02:54.687Z,19.01
2023-10-07T06:05:29.071Z,19.02
2023-10-07T06:07:59.330Z,19.02
2023-10-07T06:10:27.394Z,19.01
2023-10-07T06:12:55.898Z,19.01
2023-10-07T06:15:24.785Z,19.00
2023-10-07T06:17:52.979Z,19.01
2023-10-07T06:20:28.041Z,19.02
2023-10-07T06:22:57.478Z,19.01
2023-10-07T06:25:32.685Z,19.04
2023-10-07T06:28:01.015Z,19.04
2023-10-07T06:30:29.173Z,19.04
2023-10-07T06:32:57.755Z,19.03
2023-10-07T06:35:26.920Z,19.01
2023-10-07T06:37:58.707Z,19.00
2023-10-07T06:40:29.896Z,19.00
2023-10-07T06:43:00.217Z,18.98
2023-10-07T06:45:37.201Z,18.99
2023-10-07T06:48:10.114Z,18.95
2023-10-07T06:50:42.599Z,18.96
2023-10-07T06:53:13.030Z,19.00
2023-10-07T06:55:45.776Z,19.01
2023-10-07T06:58:16.150Z,19.03
2023-10-07T07:00:50.046Z,19.03
2023-10-07T07:03:20.666Z,19.01
2023-10-07T07:05:49.297Z,19.03
2023-10-07T07:08:24.444Z,19.04
2023-10-07T07:10:57.022Z,19.07
2023-10-07T07:13:29.136Z,19.06
2023-10-07T07:16:07.683Z,19.09
2023-10-07T07:18:41.651Z,19.09
2023-10-07T07:21:32.612Z,19.11
2023-10-07T07:23:59.889Z,19.14
2023-10-07T07:26:31.608Z,19.15
2023-10-07T07:29:00.134Z,19.15
2023-10-07T07:31:34.301Z,19.20
2023-10-07T07:34:14.763Z,19.24
2023-10-07T07:36:49.288Z,19.28
2023-10-07T07:39:21.332Z,19.35
2023-10-07T07:41:57.714Z,19.37
2023-10-07T07:44:34.990Z,19.40
2023-10-07T07:47:05.134Z,19.44
2023-10-07T07:49:34.361Z,19.47
2023-10-07T07:52:03.146Z,19.51
2023-10-07T07:54:31.238Z,19.52
2023-10-07T07:57:06.094Z,19.56
2023-10-07T07:59:34.547Z,19.60
2023-10-07T08:02:14.224Z,19.61
2023-10-07T08:04:47.625Z,19.72
2023-10-07T08:07:26.366Z,19.77
2023-10-07T08:09:55.026Z,19.81
2023-10-07T08:12:30.782Z,19.88
2023-10-07T08:15:00.778Z,19.90
2023-10-07T08:17:29.513Z,19.93
2023-10-07T08:19:59.801Z,19.96
2023-10-07T08:22:28.615Z,19.98
2023-10-07T08:25:02.651Z,20.00
2023-10-07T08:27:50.629Z,20.05
2023-10-07T08:30:32.222Z,20.11
2023-10-07T08:33:02.370Z,20.19
2023-10-07T08:35:30.218Z,20.24
2023-10-07T08:37:58.573Z,20.32
2023-10-07T08:40:29.873Z,20.43
2023-10-07T08:43:00.851Z,20.47
2023-10-07T08:45:30.592Z,20.62
2023-10-07T08:48:10.834Z,20.64
2023-10-07T08:50:43.858Z,20.80
2023-10-07T08:53:16.932Z,20.88
2023-10-07T08:55:47.888Z,20.94
2023-10-07T08:58:17.871Z,21.02
2023-10-07T09:00:48.730Z,21.10
2023-10-07T09:03:17.187Z,21.17
2023-10-07T09:05:46.498Z,21.25
2023-10-07T09:08:14.367Z,21.32
2023-10-07T09:10:47.099Z,21.33
2023-10-07T09:13:28.465Z,21.43
2023-10-07T09:16:00.961Z,21.48
2023-10-07T09:18:32.971Z,21.55
2023-10-07T09:21:08.239Z,21.61
2023-10-07T09:23:44.820Z,21.67
2023-10-07T09:26:18.262Z,21.73
2023-10-07T09:28:48.595Z,21.79
2023-10-07T09:31:18.476Z,21.86
2023-10-07T09:33:50.208Z,21.89
2023-10-07T09:36:34.461Z,21.94
2023-10-07T09:39:20.854Z,21.99
2023-10-07T09:42:04.495Z,22.05
2023-10-07T09:44:33.552Z,22.11
2023-10-07T09:47:12.494Z,22.16
2023-10-07T09:49:40.446Z,22.25
2023-10-07T09:52:18.040Z,22.28
2023-10-07T09:55:19.979Z,22.36
2023-10-07T09:58:01.786Z,22.41
2023-10-07T10:00:41.381Z,22.46
2023-10-07T10:03:47.023Z,22.54
2023-10-07T10:06:28.027Z,22.61
2023-10-07T10:08:59.532Z,22.65
2023-10-07T10:11:45.726Z,22.71
2023-10-07T10:14:23.457Z,22.75
2023-10-07T10:16:55.478Z,22.84
2023-10-07T10:19:29.904Z,22.85
2023-10-07T10:22:11.780Z,22.91
2023-10-07T10:24:45.503Z,22.97
2023-10-07T10:27:14.381Z,23.01
2023-10-07T10:29:54.311Z,23.08
2023-10-07T10:32:30.726Z,23.14
2023-10-07T10:35:03.765Z,23.18
2023-10-07T10:37:32.674Z,23.19
2023-10-07T10:40:07.173Z,23.25
2023-10-07T10:42:42.547Z,23.33
2023-10-07T10:45:19.586Z,23.38
2023-10-07T10:47:52.150Z,23.44
2023-10-07T10:50:21.553Z,23.48
2023-10-07T10:52:50.338Z,23.54
2023-10-07T10:55:18.278Z,23.61
2023-10-07T10:57:46.512Z,23.66
2023-10-07T11:00:20.809Z,23.71
2023-10-07T11:02:51.981Z,23.75
2023-10-07T11:05:22.009Z,23.81
2023-10-07T11:07:52.225Z,23.83
2023-10-07T11:10:23.758Z,23.85
2023-10-07T11:12:56.761Z,23.91
2023-10-07T11:15:27.119Z,23.91
2023-10-07T11:17:59.159Z,23.92
2023-10-07T11:20:34.039Z,23.94
2023-10-07T11:23:04.194Z,23.97
2023-10-07T11:25:34.928Z,23.99
2023-10-07T11:28:06.707Z,24.05
2023-10-07T11:30:45.392Z,24.09
2023-10-07T11:33:18.248Z,24.11
2023-10-07T11:35:57.881Z,24.13
2023-10-07T11:38:26.674Z,24.16
2023-10-07T11:40:54.780Z,24.16
2023-10-07T11:43:22.599Z,24.18
2023-10-07T11:45:51.710Z,24.19
2023-10-07T11:48:23.139Z,24.20
2023-10-07T11:50:51.115Z,24.21
2023-10-07T11:53:21.324Z,24.23
2023-10-07T11:55:49.474Z,24.25
2023-10-07T11:58:19.124Z,24.26
2023-10-07T12:00:47.822Z,24.28
2023-10-07T12:03:15.821Z,24.33
2023-10-07T12:05:48.013Z,24.37
2023-10-07T12:08:15.947Z,24.43
2023-10-07T12:10:44.341Z,24.47
2023-10-07T12:13:13.444Z,24.51
2023-10-07T12:15:53.670Z,24.52
2023-10-07T12:18:32.137Z,24.56
2023-10-07T12:21:02.596Z,24.60
2023-10-07T12:23:34.917Z,24.63
2023-10-07T12:26:03.456Z,24.64
2023-10-07T12:28:32.205Z,24.69
2023-10-07T12:31:00.670Z,24.72
2023-10-07T12:33:36.845Z,24.77
2023-10-07T12:36:13.051Z,24.82
2023-10-07T12:38:40.972Z,24.82
2023-10-07T12:41:09.847Z,24.83
2023-10-07T12:43:39.584Z,24.88
2023-10-07T12:46:10.638Z,24.90
2023-10-07T12:48:41.699Z,24.86
2023-10-07T12:51:13.054Z,24.93
2023-10-07T12:53:45.344Z,24.96
2023-10-07T12:56:15.135Z,24.96
2023-10-07T12:58:43.995Z,24.96
2023-10-07T13:01:14.473Z,24.99
2023-10-07T13:03:44.890Z,25.00
2023-10-07T13:06:16.785Z,25.03
2023-10-07T13:08:46.388Z,25.07
2023-10-07T13:11:15.145Z,25.11
2023-10-07T13:13:44.119Z,25.13
2023-10-07T13:16:12.626Z,25.11
2023-10-07T13:18:41.440Z,25.13
2023-10-07T13:21:15.013Z,25.12
2023-10-07T13:23:44.054Z,25.11
2023-10-07T13:26:13.385Z,25.12
2023-10-07T13:28:42.620Z,25.14
2023-10-07T13:31:15.404Z,25.10
2023-10-07T13:33:43.901Z,25.13
2023-10-07T13:36:11.843Z,25.11
2023-10-07T13:38:40.175Z,25.14
2023-10-07T13:41:08.823Z,25.15
2023-10-07T13:43:38.289Z,25.16
2023-10-07T13:46:12.251Z,25.22
2023-10-07T13:48:40.258Z,25.22
2023-10-07T13:51:08.233Z,25.23
2023-10-07T13:53:53.328Z,25.22
2023-10-07T13:56:34.598Z,25.24
2023-10-07T13:59:07.325Z,25.22
2023-10-07T14:01:35.341Z,25.23
2023-10-07T14:04:04.192Z,25.25
2023-10-07T14:06:35.460Z,25.26
2023-10-07T14:09:04.029Z,25.28
2023-10-07T14:11:33.219Z,25.30
2023-10-07T14:14:01.834Z,25.31
2023-10-07T14:16:31.252Z,25.37
2023-10-07T14:18:59.001Z,25.38
2023-10-07T14:21:28.228Z,25.38
2023-10-07T14:23:57.057Z,25.35
2023-10-07T14:26:26.156Z,25.33
2023-10-07T14:28:54.461Z,25.36
2023-10-07T14:31:23.502Z,25.34
2023-10-07T14:33:55.816Z,25.29
2023-10-07T14:36:23.807Z,25.30
2023-10-07T14:38:52.940Z,25.30
2023-10-07T14:41:21.516Z,25.31
2023-10-07T14:43:49.739Z,25.31
2023-10-07T14:46:17.817Z,25.31
2023-10-07T14:48:47.689Z,25.31
2023-10-07T14:51:19.015Z,25.34
2023-10-07T14:53:49.936Z,25.31
2023-10-07T14:56:23.319Z,25.31
2023-10-07T14:58:52.933Z,25.33
2023-10-07T15:01:23.852Z,25.33
2023-10-07T15:03:54.698Z,25.34
2023-10-07T15:06:24.194Z,25.36
2023-10-07T15:08:52.372Z,25.34
2023-10-07T15:11:21.688Z,25.34
2023-10-07T15:13:51.112Z,25.33
2023-10-07T15:16:19.745Z,25.35
2023-10-07T15:18:50.798Z,25.35
2023-10-07T15:21:19.248Z,25.36
2023-10-07T15:23:48.539Z,25.37
2023-10-07T15:26:19.235Z,25.37
2023-10-07T15:28:49.084Z,25.37
2023-10-07T15:31:23.726Z,25.38
2023-10-07T15:33:56.472Z,25.39
2023-10-07T15:36:25.673Z,25.37
2023-10-07T15:38:55.359Z,25.39
2023-10-07T15:41:23.292Z,25.38
2023-10-07T15:43:52.494Z,25.38
2023-10-07T15:46:20.622Z,25.34
2023-10-07T15:48:48.773Z,25.31
2023-10-07T15:51:17.374Z,25.29
2023-10-07T15:53:46.000Z,25.27
2023-10-07T15:56:19.819Z,25.27
2023-10-07T15:58:48.653Z,25.25
2023-10-07T16:01:17.031Z,25.25
2023-10-07T16:03:45.413Z,25.22
2023-10-07T16:06:16.075Z,25.20
2023-10-07T16:08:45.808Z,25.18
2023-10-07T16:11:19.931Z,25.18
2023-10-07T16:13:48.129Z,25.15
2023-10-07T16:16:17.426Z,25.13
2023-10-07T16:18:46.995Z,25.12
2023-10-07T16:21:17.047Z,25.12
2023-10-07T16:23:45.295Z,25.09
2023-10-07T16:26:15.131Z,25.08
2023-10-07T16:28:45.855Z,25.08
2023-10-07T16:31:13.956Z,25.05
2023-10-07T16:33:42.033Z,25.03
2023-10-07T16:36:11.059Z,25.02
2023-10-07T16:38:40.886Z,24.97
2023-10-07T16:41:09.422Z,24.97
2023-10-07T16:43:38.358Z,24.96
2023-10-07T16:46:08.054Z,24.94
2023-10-07T16:48:36.546Z,24.94
2023-10-07T16:51:06.698Z,24.92
2023-10-07T16:53:35.816Z,24.90
2023-10-07T16:56:06.560Z,24.87
2023-10-07T16:58:36.432Z,24.84
2023-10-07T17:01:05.376Z,24.84
2023-10-07T17:03:34.912Z,24.82
2023-10-07T17:06:03.815Z,24.83
2023-10-07T17:08:32.596Z,24.85
2023-10-07T17:11:01.710Z,24.79
2023-10-07T17:13:30.811Z,24.74
2023-10-07T17:15:59.890Z,24.72
2023-10-07T17:18:28.777Z,24.71
2023-10-07T17:21:00.968Z,24.70
2023-10-07T17:23:29.082Z,24.65
2023-10-07T17:25:57.401Z,24.66
2023-10-07T17:28:25.725Z,24.60
2023-10-07T17:30:54.458Z,24.58
2023-10-07T17:33:22.772Z,24.56
2023-10-07T17:35:51.700Z,24.53
2023-10-07T17:38:21.430Z,24.50
2023-10-07T17:40:49.360Z,24.50
2023-10-07T17:43:17.376Z,24.47
2023-10-07T17:45:45.283Z,24.45
2023-10-07T17:48:13.420Z,24.41
2023-10-07T17:50:42.146Z,24.40
2023-10-07T17:53:11.719Z,24.39
2023-10-07T17:55:45.677Z,24.41
2023-10-07T17:58:13.750Z,24.37
2023-10-07T18:00:41.699Z,24.35
2023-10-07T18:03:10.444Z,24.33
2023-10-07T18:05:38.932Z,24.34
2023-10-07T18:08:08.002Z,24.28
2023-10-07T18:10:36.629Z,24.29
2023-10-07T18:13:07.896Z,24.28
2023-10-07T18:15:36.175Z,24.26
2023-10-07T18:18:06.353Z,24.25
2023-10-07T18:20:34.291Z,24.21
2023-10-07T18:23:02.364Z,24.21
2023-10-07T18:25:30.629Z,24.20
2023-10-07T18:27:59.053Z,24.16
2023-10-07T18:30:28.388Z,24.17
2023-10-07T18:32:56.757Z,24.16
2023-10-07T18:35:27.845Z,24.16
2023-10-07T18:37:56.011Z,24.15
2023-10-07T18:40:24.442Z,24.14
2023-10-07T18:42:52.265Z,24.13
2023-10-07T18:45:20.336Z,24.09
2023-10-07T18:47:50.243Z,24.05
2023-10-07T18:50:18.988Z,24.07
2023-10-07T18:52:46.843Z,24.06
2023-10-07T18:55:15.216Z,24.06
2023-10-07T18:57:44.393Z,24.05
2023-10-07T19:00:15.863Z,24.03
2023-10-07T19:02:43.954Z,23.96
2023-10-07T19:05:17.093Z,24.01
2023-10-07T19:07:45.956Z,23.95
2023-10-07T19:10:14.839Z,23.95
2023-10-07T19:12:43.565Z,23.93
2023-10-07T19:15:12.496Z,23.94
2023-10-07T19:17:40.537Z,23.93
2023-10-07T19:20:10.582Z,23.92
2023-10-07T19:22:42.049Z,23.92
2023-10-07T19:25:12.529Z,23.90
2023-10-07T19:27:40.564Z,23.87
2023-10-07T19:30:11.527Z,23.86
2023-10-07T19:32:44.438Z,23.83
2023-10-07T19:35:13.096Z,23.81
2023-10-07T19:37:42.444Z,23.80
2023-10-07T19:40:11.991Z,23.78
2023-10-07T19:42:39.600Z,23.79
2023-10-07T19:45:11.163Z,23.78
2023-10-07T19:47:39.991Z,23.77
2023-10-07T19:50:08.947Z,23.70
2023-10-07T19:52:36.828Z,23.66
2023-10-07T19:55:07.655Z,23.66
2023-10-07T19:57:36.225Z,23.63
2023-10-07T20:00:04.919Z,23.63
2023-10-07T20:02:33.369Z,23.63
2023-10-07T20:05:01.427Z,23.61
2023-10-07T20:07:29.326Z,23.61
2023-10-07T20:09:57.536Z,23.56
2023-10-07T20:12:26.788Z,23.62
2023-10-07T20:14:55.250Z,23.60
2023-10-07T20:17:23.807Z,23.58
2023-10-07T20:19:52.393Z,23.56
2023-10-07T20:22:20.545Z,23.55
2023-10-07T20:24:48.877Z,23.53
2023-10-07T20:27:16.975Z,23.50
2023-10-07T20:29:46.351Z,23.47
2023-10-07T20:32:14.587Z,23.44
2023-10-07T20:34:42.470Z,23.45
2023-10-07T20:37:12.017Z,23.43
2023-10-07T20:39:40.365Z,23.38
2023-10-07T20:42:08.181Z,23.35
2023-10-07T20:44:36.188Z,23.33
2023-10-07T20:47:08.930Z,23.30
2023-10-07T20:49:38.422Z,23.25
2023-10-07T20:52:06.524Z,23.19
2023-10-07T20:54:34.810Z,23.18
2023-10-07T20:57:02.694Z,23.17
2023-10-07T20:59:30.752Z,23.13
2023-10-07T21:02:00.646Z,23.07
2023-10-07T21:04:30.131Z,23.09
2023-10-07T21:06:57.905Z,23.09
2023-10-07T21:09:26.229Z,23.11
2023-10-07T21:11:54.149Z,23.08
2023-10-07T21:14:22.046Z,23.07
2023-10-07T21:16:50.085Z,23.03
2023-10-07T21:19:17.957Z,22.99
2023-10-07T21:21:47.868Z,22.98
2023-10-07T21:24:15.979Z,22.93
2023-10-07T21:26:43.789Z,22.90
2023-10-07T21:29:11.931Z,22.88
2023-10-07T21:31:40.628Z,22.85
2023-10-07T21:34:10.820Z,22.83
2023-10-07T21:36:38.873Z,22.81
2023-10-07T21:39:11.282Z,22.77
2023-10-07T21:41:39.251Z,22.77
2023-10-07T21:44:07.629Z,22.73
2023-10-07T21:46:36.702Z,22.71
2023-10-07T21:49:04.620Z,22.70
2023-10-07T21:51:32.459Z,22.66
2023-10-07T21:54:00.323Z,22.63
2023-10-07T21:56:29.690Z,22.60
2023-10-07T21:58:57.543Z,22.57
2023-10-07T22:01:26.119Z,22.55
2023-10-07T22:03:54.047Z,22.51
2023-10-07T22:06:24.932Z,22.49
2023-10-07T22:08:53.557Z,22.47
2023-10-07T22:11:21.695Z,22.46
2023-10-07T22:13:51.007Z,22.44
2023-10-07T22:16:19.478Z,22.41
2023-10-07T22:18:47.363Z,22.39
2023-10-07T22:21:15.206Z,22.35
2023-10-07T22:23:45.384Z,22.33
2023-10-07T22:26:20.281Z,22.31
2023-10-07T22:28:49.038Z,22.28
2023-10-07T22:31:18.774Z,22.28
2023-10-07T22:33:46.617Z,22.27
2023-10-07T22:36:19.628Z,22.27
2023-10-07T22:38:54.526Z,22.24
2023-10-07T22:41:27.914Z,22.26
2023-10-07T22:44:01.556Z,22.23
2023-10-07T22:46:32.918Z,22.25
2023-10-07T22:49:01.456Z,22.23
2023-10-07T22:51:29.304Z,22.20
2023-10-07T22:54:05.222Z,22.20
2023-10-07T22:56:33.830Z,22.18
2023-10-07T22:59:07.049Z,22.18
2023-10-07T23:01:44.443Z,22.20
2023-10-07T23:04:16.785Z,22.17
2023-10-07T23:06:57.476Z,22.15
2023-10-07T23:09:30.416Z,22.14
2023-10-07T23:12:04.145Z,22.12
2023-10-07T23:14:38.063Z,22.10
2023-10-07T23:17:07.272Z,22.07
2023-10-07T23:19:43.323Z,22.06
2023-10-07T23:22:25.012Z,22.04
2023-10-07T23:25:15.455Z,22.01
2023-10-07T23:27:45.701Z,21.98
2023-10-07T23:30:27.604Z,21.95
2023-10-07T23:33:01.870Z,21.95
2023-10-07T23:35:33.862Z,21.93
2023-10-07T23:38:09.616Z,21.94
2023-10-07T23:40:39.078Z,21.93
2023-10-07T23:43:10.908Z,21.92
2023-10-07T23:45:45.367Z,21.90
2023-10-07T23:48:19.529Z,21.89
2023-10-07T23:50:58.138Z,21.86
2023-10-07T23:53:31.127Z,21.83
2023-10-07T23:56:08.778Z,21.80
2023-10-07T23:58:44.050Z,21.79
